createdAt,value
2017-12-05T00:01:11.050Z,25.00
2017-12-05T00:03:40.180Z,39.83
2017-12-05T00:06:08.426Z,35.40
2017-12-05T00:08:36.693Z,26.83
2017-12-05T00:11:05.808Z,31.83
2017-12-05T00:13:34.147Z,37.87
2017-12-05T00:16:02.462Z,32.70
2017-12-05T00:18:30.784Z,23.90
2017-12-05T00:20:59.114Z,33.20
2017-12-05T00:23:27.422Z,30.20
2017-12-05T00:25:55.730Z,22.60
2017-12-05T00:28:24.035Z,27.23
2017-12-05T00:30:53.118Z,28.40
2017-12-05T00:33:22.188Z,30.70
2017-12-05T00:35:50.481Z,27.97
2017-12-05T00:38:18.789Z,27.40
2017-12-05T00:40:47.058Z,27.07
2017-12-05T00:43:15.310Z,18.97
2017-12-05T00:45:44.371Z,27.00
2017-12-05T00:48:12.692Z,27.33
2017-12-05T00:50:41.764Z,26.23
2017-12-05T00:53:10.066Z,20.73
2017-12-05T00:55:39.171Z,19.33
2017-12-05T00:58:07.469Z,26.00
2017-12-05T01:00:35.802Z,35.37
2017-12-05T01:03:04.119Z,31.00
2017-12-05T01:05:32.432Z,27.23
2017-12-05T01:08:00.999Z,18.53
2017-12-05T01:10:29.308Z,24.50
2017-12-05T01:12:58.380Z,26.97
2017-12-05T01:15:27.454Z,30.90
2017-12-05T01:17:55.755Z,30.07
2017-12-05T01:20:24.062Z,34.07
2017-12-05T01:22:53.130Z,26.90
2017-12-05T01:25:21.454Z,33.07
2017-12-05T01:27:49.755Z,30.77
2017-12-05T01:30:18.062Z,27.37
2017-12-05T01:32:46.392Z,32.07
2017-12-05T01:35:14.718Z,30.00
2017-12-05T01:37:43.026Z,29.80
2017-12-05T01:40:12.066Z,23.07
2017-12-05T01:42:40.345Z,32.10
2017-12-05T01:45:08.650Z,27.47
2017-12-05T01:47:36.962Z,26.30
2017-12-05T01:50:05.267Z,25.67
2017-12-05T01:52:33.581Z,26.60
2017-12-05T01:55:02.674Z,24.73
2017-12-05T01:57:31.012Z,30.30
2017-12-05T01:59:59.332Z,23.73
2017-12-05T02:02:27.639Z,19.73
2017-12-05T02:04:55.937Z,19.90
2017-12-05T02:07:24.249Z,22.73
2017-12-05T02:09:52.561Z,27.87
2017-12-05T02:12:20.882Z,23.03
2017-12-05T02:14:49.188Z,19.53
2017-12-05T02:17:17.515Z,19.53
2017-12-05T02:19:45.824Z,19.67
2017-12-05T02:22:14.130Z,27.17
2017-12-05T02:24:43.224Z,30.67
2017-12-05T02:27:11.536Z,27.20
2017-12-05T02:29:39.861Z,25.00
2017-12-05T02:32:08.198Z,21.93
2017-12-05T02:34:36.489Z,24.60
2017-12-05T02:37:04.762Z,26.60
2017-12-05T02:39:33.074Z,22.37
2017-12-05T02:42:01.371Z,21.47
2017-12-05T02:44:30.433Z,22.37
2017-12-05T02:46:58.713Z,38.83
2017-12-05T02:49:26.997Z,18.90
2017-12-05T02:51:55.284Z,21.57
2017-12-05T02:54:23.598Z,19.53
2017-12-05T02:56:51.906Z,28.43
2017-12-05T02:59:20.245Z,18.23
2017-12-05T03:01:48.554Z,30.00
2017-12-05T03:04:16.880Z,24.10
2017-12-05T03:06:45.969Z,22.23
2017-12-05T03:09:15.071Z,25.20
2017-12-05T03:11:43.392Z,26.87
2017-12-05T03:14:11.704Z,32.60
2017-12-05T03:16:40.022Z,26.30
2017-12-05T03:19:08.313Z,22.37
2017-12-05T03:21:36.607Z,24.63
2017-12-05T03:24:04.935Z,26.57
2017-12-05T03:26:34.016Z,24.23
2017-12-05T03:29:03.076Z,25.13
2017-12-05T03:31:31.398Z,27.27
2017-12-05T03:34:00.489Z,16.90
2017-12-05T03:36:29.566Z,26.37
2017-12-05T03:38:57.870Z,28.43
2017-12-05T03:41:26.955Z,20.37
2017-12-05T03:43:56.038Z,28.27
2017-12-05T03:46:24.334Z,33.43
2017-12-05T03:48:53.422Z,22.83
2017-12-05T03:51:22.532Z,23.40
2017-12-05T03:53:50.897Z,25.33
2017-12-05T03:56:19.978Z,22.90
2017-12-05T03:58:49.071Z,25.50
2017-12-05T04:01:17.366Z,29.20
2017-12-05T04:03:46.452Z,29.53
2017-12-05T04:06:15.518Z,34.17
2017-12-05T04:08:43.820Z,26.30
2017-12-05T04:11:13.091Z,29.77
2017-12-05T04:13:41.425Z,25.77
2017-12-05T04:16:09.721Z,24.83
2017-12-05T04:18:38.033Z,34.07
2017-12-05T04:21:06.348Z,23.97
2017-12-05T04:23:35.442Z,37.60
2017-12-05T04:26:03.785Z,27.03
2017-12-05T04:28:32.090Z,32.73
2017-12-05T04:31:01.180Z,28.50
2017-12-05T04:33:30.267Z,27.93
2017-12-05T04:35:59.351Z,28.90
2017-12-05T04:38:27.658Z,29.40
2017-12-05T04:40:55.994Z,37.07
2017-12-05T04:43:24.288Z,35.87
2017-12-05T04:45:52.605Z,28.50
2017-12-05T04:48:20.911Z,30.40
2017-12-05T04:50:49.223Z,33.23
2017-12-05T04:53:18.278Z,42.13
2017-12-05T04:55:46.616Z,45.05
2017-12-05T04:58:14.900Z,22.87
2017-12-05T05:00:43.213Z,43.20
2017-12-05T05:03:11.480Z,58.97
2017-12-05T05:05:39.750Z,47.63
2017-12-05T05:08:08.037Z,55.43
2017-12-05T05:10:36.317Z,40.53
2017-12-05T05:13:04.587Z,45.57
2017-12-05T05:15:32.865Z,55.92
2017-12-05T05:18:01.150Z,62.87
2017-12-05T05:20:29.426Z,62.87
2017-12-05T05:22:57.754Z,67.60
2017-12-05T05:25:25.990Z,70.90
2017-12-05T05:27:54.266Z,68.62
2017-12-05T05:30:22.532Z,68.40
2017-12-05T05:32:50.807Z,77.40
2017-12-05T05:35:19.083Z,60.93
2017-12-05T05:37:47.362Z,60.67
2017-12-05T05:40:15.653Z,53.37
2017-12-05T05:42:43.949Z,55.93
2017-12-05T05:45:12.987Z,59.30
2017-12-05T05:47:41.247Z,77.83
2017-12-05T05:50:09.708Z,76.03
2017-12-05T05:52:38.743Z,50.17
2017-12-05T05:55:07.021Z,74.17
2017-12-05T05:57:35.312Z,51.43
2017-12-05T06:00:03.654Z,79.53
2017-12-05T06:02:31.991Z,59.07
2017-12-05T06:05:01.061Z,68.57
2017-12-05T06:07:29.370Z,77.07
2017-12-05T06:09:57.698Z,77.63
2017-12-05T06:12:26.025Z,69.20
2017-12-05T06:14:55.099Z,57.83
2017-12-05T06:17:23.422Z,56.43
2017-12-05T06:19:51.749Z,64.67
2017-12-05T06:22:20.053Z,66.43
2017-12-05T06:24:48.339Z,62.03
2017-12-05T06:27:16.635Z,77.47
2017-12-05T06:29:44.955Z,68.87
2017-12-05T06:32:13.279Z,52.57
2017-12-05T06:34:41.586Z,52.90
2017-12-05T06:37:09.918Z,46.13
2017-12-05T06:39:38.213Z,45.80
2017-12-05T06:42:06.501Z,35.80
2017-12-05T06:44:34.801Z,41.13
2017-12-05T06:47:03.109Z,48.00
2017-12-05T06:49:32.192Z,46.90
2017-12-05T06:52:00.506Z,38.33
2017-12-05T06:54:28.808Z,30.73
2017-12-05T06:56:57.142Z,49.00
2017-12-05T06:59:25.451Z,42.87
2017-12-05T07:01:53.745Z,37.50
2017-12-05T07:04:22.066Z,31.50
2017-12-05T07:06:51.136Z,37.87
2017-12-05T07:09:19.448Z,38.00
2017-12-05T07:11:47.752Z,33.90
2017-12-05T07:14:16.066Z,36.50
2017-12-05T07:16:44.400Z,37.83
2017-12-05T07:19:12.698Z,18.70
2017-12-05T07:21:41.034Z,36.10
2017-12-05T07:24:13.618Z,25.00
2017-12-05T07:26:41.951Z,35.17
2017-12-05T07:29:10.245Z,35.50
2017-12-05T07:31:39.347Z,30.35
2017-12-05T07:34:07.694Z,25.17
2017-12-05T07:36:36.056Z,28.57
2017-12-05T07:39:04.412Z,14.50
2017-12-05T07:41:32.747Z,28.97
2017-12-05T07:44:01.842Z,20.20
2017-12-05T07:46:30.920Z,23.85
2017-12-05T07:48:59.235Z,28.60
2017-12-05T07:51:27.588Z,23.93
2017-12-05T07:53:55.898Z,25.37
2017-12-05T07:56:24.246Z,34.97
2017-12-05T07:58:52.639Z,33.67
2017-12-05T08:01:20.999Z,32.97
2017-12-05T08:03:49.370Z,29.05
2017-12-05T08:06:17.704Z,28.17
2017-12-05T08:08:46.801Z,24.77
2017-12-05T08:11:15.122Z,32.20
2017-12-05T08:13:43.462Z,24.12
2017-12-05T08:16:11.851Z,21.50
2017-12-05T08:18:40.931Z,28.00
2017-12-05T08:21:09.314Z,21.73
2017-12-05T08:23:37.647Z,19.07
2017-12-05T08:26:06.734Z,21.70
2017-12-05T08:28:35.837Z,18.30
2017-12-05T08:31:04.918Z,20.47
2017-12-05T08:33:34.032Z,16.17
2017-12-05T08:36:02.382Z,19.53
2017-12-05T08:38:30.712Z,17.30
2017-12-05T08:40:59.034Z,17.40
2017-12-05T08:43:27.368Z,17.23
2017-12-05T08:45:55.692Z,17.87
2017-12-05T08:48:24.006Z,15.03
2017-12-05T08:50:52.314Z,11.30
2017-12-05T08:53:21.422Z,15.50
2017-12-05T08:55:50.500Z,17.57
2017-12-05T08:58:18.853Z,17.47
2017-12-05T09:00:47.186Z,17.63
2017-12-05T09:03:15.502Z,14.93
2017-12-05T09:05:43.849Z,17.67
2017-12-05T09:08:12.214Z,15.60
2017-12-05T09:10:40.552Z,13.33
2017-12-05T09:13:08.899Z,16.53
2017-12-05T09:15:37.995Z,15.80
2017-12-05T09:18:07.115Z,13.00
2017-12-05T09:20:35.449Z,14.27
2017-12-05T09:23:04.588Z,11.27
2017-12-05T09:25:32.918Z,13.97
2017-12-05T09:28:01.261Z,18.30
2017-12-05T09:30:29.607Z,16.33
2017-12-05T09:32:57.969Z,15.00
2017-12-05T09:35:27.060Z,14.50
2017-12-05T09:37:56.174Z,14.37
2017-12-05T09:40:24.499Z,11.97
2017-12-05T09:42:52.823Z,15.40
2017-12-05T09:45:21.136Z,12.73
2017-12-05T09:47:49.454Z,16.33
2017-12-05T09:50:17.744Z,14.30
2017-12-05T09:52:46.845Z,16.07
2017-12-05T09:55:15.941Z,15.20
2017-12-05T09:57:45.023Z,8.37
2017-12-05T10:00:14.114Z,13.67
2017-12-05T10:02:42.426Z,13.47
2017-12-05T10:05:10.795Z,17.37
2017-12-05T10:07:39.109Z,11.40
2017-12-05T10:10:08.220Z,10.43
2017-12-05T10:12:36.540Z,14.83
2017-12-05T10:15:04.907Z,13.73
2017-12-05T10:17:34.007Z,16.93
2017-12-05T10:20:02.372Z,12.60
2017-12-05T10:22:31.441Z,13.80
2017-12-05T10:24:59.786Z,11.87
2017-12-05T10:27:28.164Z,11.65
2017-12-05T10:29:56.584Z,11.30
2017-12-05T10:32:25.534Z,17.90
2017-12-05T10:34:53.891Z,8.13
2017-12-05T10:37:22.235Z,9.83
2017-12-05T10:39:50.575Z,7.93
2017-12-05T10:42:18.905Z,10.03
2017-12-05T10:44:47.992Z,7.30
2017-12-05T10:47:17.079Z,5.50
2017-12-05T10:49:46.216Z,6.53
2017-12-05T10:52:14.551Z,6.07
2017-12-05T10:54:42.897Z,7.57
2017-12-05T10:57:11.212Z,5.87
2017-12-05T10:59:40.318Z,8.23
2017-12-05T11:02:09.447Z,5.27
2017-12-05T11:04:37.785Z,7.60
2017-12-05T11:07:06.876Z,7.23
2017-12-05T11:09:35.240Z,6.50
2017-12-05T11:12:03.597Z,3.53
2017-12-05T11:14:31.937Z,8.70
2017-12-05T11:17:00.264Z,6.73
2017-12-05T11:19:28.586Z,6.20
2017-12-05T11:21:56.939Z,8.30
2017-12-05T11:24:25.290Z,9.33
2017-12-05T11:26:53.662Z,8.83
2017-12-05T11:29:21.980Z,5.30
2017-12-05T11:31:51.077Z,6.13
2017-12-05T11:34:20.187Z,8.00
2017-12-05T11:36:48.525Z,7.37
2017-12-05T11:39:16.867Z,11.40
2017-12-05T11:41:45.182Z,7.33
2017-12-05T11:44:13.496Z,10.53
2017-12-05T11:46:41.816Z,10.00
2017-12-05T11:49:10.898Z,4.83
2017-12-05T11:51:39.301Z,7.20
2017-12-05T11:54:07.665Z,6.83
2017-12-05T11:56:35.968Z,6.83
2017-12-05T11:59:04.291Z,7.50
2017-12-05T12:01:32.615Z,8.70
2017-12-05T12:04:00.932Z,8.47
2017-12-05T12:06:29.281Z,9.13
2017-12-05T12:08:57.629Z,11.97
2017-12-05T12:11:25.943Z,9.23
2017-12-05T12:13:55.044Z,6.07
2017-12-05T12:16:23.414Z,6.13
2017-12-05T12:18:52.516Z,9.77
2017-12-05T12:21:21.620Z,10.60
2017-12-05T12:23:49.968Z,8.60
2017-12-05T12:26:18.307Z,8.77
2017-12-05T12:28:46.623Z,6.10
2017-12-05T12:31:14.946Z,8.97
2017-12-05T12:33:43.270Z,9.10
2017-12-05T12:36:12.348Z,9.40
2017-12-05T12:38:40.702Z,7.47
2017-12-05T12:41:09.076Z,10.53
2017-12-05T12:43:37.419Z,9.67
2017-12-05T12:46:06.553Z,18.33
2017-12-05T12:48:34.899Z,9.03
2017-12-05T12:51:03.985Z,5.67
2017-12-05T12:53:32.302Z,8.00
2017-12-05T12:56:00.620Z,7.30
2017-12-05T12:58:28.966Z,7.70
2017-12-05T13:00:57.359Z,8.53
2017-12-05T13:03:25.758Z,10.30
2017-12-05T13:05:54.149Z,7.80
2017-12-05T13:08:22.488Z,6.90
2017-12-05T13:10:50.857Z,6.07
2017-12-05T13:13:19.184Z,9.40
2017-12-05T13:15:48.276Z,8.40
2017-12-05T13:18:16.658Z,7.40
2017-12-05T13:20:45.754Z,9.27
2017-12-05T13:23:14.881Z,8.00
2017-12-05T13:25:43.232Z,9.50
2017-12-05T13:28:12.336Z,6.40
2017-12-05T13:30:41.454Z,6.50
2017-12-05T13:33:09.855Z,6.83
2017-12-05T13:35:38.161Z,8.60
2017-12-05T13:38:06.544Z,7.50
2017-12-05T13:40:35.640Z,8.57
2017-12-05T13:43:03.954Z,8.40
2017-12-05T13:45:32.298Z,8.80
2017-12-05T13:48:00.620Z,10.63
2017-12-05T13:50:28.947Z,7.77
2017-12-05T13:52:57.306Z,5.77
2017-12-05T13:55:25.645Z,7.03
2017-12-05T13:57:53.974Z,6.80
2017-12-05T14:00:23.412Z,6.77
2017-12-05T14:02:51.771Z,8.67
2017-12-05T14:05:20.896Z,7.70
2017-12-05T14:07:49.273Z,5.50
2017-12-05T14:10:17.650Z,6.47
2017-12-05T14:12:46.019Z,9.53
2017-12-05T14:15:14.381Z,7.60
2017-12-05T14:17:43.474Z,3.33
2017-12-05T14:20:11.798Z,8.90
2017-12-05T14:22:40.149Z,6.87
2017-12-05T14:25:09.270Z,7.80
2017-12-05T14:27:37.594Z,8.73
2017-12-05T14:30:05.933Z,4.67
2017-12-05T14:32:34.287Z,10.17
2017-12-05T14:35:02.652Z,6.60
2017-12-05T14:37:31.022Z,9.13
2017-12-05T14:40:00.137Z,8.13
2017-12-05T14:42:28.479Z,9.20
2017-12-05T14:44:56.795Z,5.70
2017-12-05T14:47:25.140Z,7.73
2017-12-05T14:49:53.463Z,7.30
2017-12-05T14:52:21.799Z,7.80
2017-12-05T14:54:50.134Z,6.17
2017-12-05T14:57:18.499Z,10.50
2017-12-05T14:59:46.815Z,6.57
2017-12-05T15:02:15.102Z,9.33
2017-12-05T15:04:44.227Z,9.10
2017-12-05T15:07:12.540Z,8.77
2017-12-05T15:09:40.860Z,10.50
2017-12-05T15:12:09.977Z,10.67
2017-12-05T15:14:38.313Z,8.37
2017-12-05T15:17:06.626Z,8.30
2017-12-05T15:19:35.007Z,7.27
2017-12-05T15:22:03.297Z,8.90
2017-12-05T15:24:31.653Z,9.50
2017-12-05T15:26:59.988Z,13.40
2017-12-05T15:29:28.321Z,9.93
2017-12-05T15:31:56.688Z,11.63
2017-12-05T15:34:25.029Z,9.53
2017-12-05T15:36:53.489Z,10.03
2017-12-05T15:39:21.836Z,11.60
2017-12-05T15:41:50.162Z,8.77
2017-12-05T15:44:18.499Z,10.43
2017-12-05T15:46:46.828Z,13.03
2017-12-05T15:49:16.109Z,10.97
2017-12-05T15:51:44.449Z,11.07
2017-12-05T15:54:13.848Z,9.60
2017-12-05T15:56:42.206Z,12.60
2017-12-05T15:59:10.555Z,10.07
2017-12-05T16:01:38.894Z,9.27
2017-12-05T16:04:07.213Z,10.57
2017-12-05T16:06:36.713Z,11.50
2017-12-05T16:09:05.067Z,11.97
2017-12-05T16:11:33.427Z,12.70
2017-12-05T16:14:01.776Z,9.83
2017-12-05T16:16:30.090Z,14.57
2017-12-05T16:18:58.453Z,9.27
2017-12-05T16:21:26.846Z,11.23
2017-12-05T16:23:55.174Z,16.00
2017-12-05T16:26:24.304Z,14.60
2017-12-05T16:28:52.667Z,15.23
2017-12-05T16:31:21.083Z,15.57
2017-12-05T16:33:49.463Z,15.60
2017-12-05T16:36:17.822Z,16.73
2017-12-05T16:38:46.183Z,17.60
2017-12-05T16:41:14.515Z,14.40
2017-12-05T16:43:42.852Z,14.73
2017-12-05T16:46:11.144Z,13.40
2017-12-05T16:48:39.472Z,15.73
2017-12-05T16:51:08.604Z,12.53
2017-12-05T16:53:36.995Z,14.50
2017-12-05T16:56:05.354Z,15.13
2017-12-05T16:58:33.792Z,14.17
2017-12-05T17:01:02.906Z,14.27
2017-12-05T17:03:31.992Z,16.33
2017-12-05T17:06:01.173Z,13.03
2017-12-05T17:08:29.569Z,15.67
2017-12-05T17:10:57.919Z,14.43
2017-12-05T17:13:26.269Z,16.90
2017-12-05T17:15:55.394Z,16.93
2017-12-05T17:18:24.543Z,21.03
2017-12-05T17:20:52.872Z,18.20
2017-12-05T17:23:21.205Z,15.77
2017-12-05T17:25:49.583Z,17.57
2017-12-05T17:28:17.910Z,17.03
2017-12-05T17:30:47.037Z,13.77
2017-12-05T17:33:15.398Z,18.57
2017-12-05T17:35:43.789Z,20.83
2017-12-05T17:38:35.236Z,19.33
2017-12-05T17:41:03.582Z,17.53
2017-12-05T17:43:42.999Z,14.50
2017-12-05T17:46:12.245Z,21.60
2017-12-05T17:48:40.542Z,15.67
2017-12-05T17:51:08.907Z,17.17
2017-12-05T17:53:37.224Z,15.50
2017-12-05T17:56:05.571Z,19.37
2017-12-05T17:58:33.909Z,17.50
2017-12-05T18:01:02.254Z,19.23
2017-12-05T18:03:30.639Z,17.87
2017-12-05T18:05:58.968Z,14.93
2017-12-05T18:08:27.308Z,16.67
2017-12-05T18:10:56.358Z,20.17
2017-12-05T18:13:24.700Z,11.67
2017-12-05T18:15:53.009Z,16.70
2017-12-05T18:18:22.331Z,17.20
2017-12-05T18:21:17.828Z,17.50
2017-12-05T18:37:30.978Z,17.07
2017-12-05T18:40:00.035Z,19.00
2017-12-05T18:42:28.474Z,16.10
2017-12-05T18:44:56.789Z,18.93
2017-12-05T18:47:25.165Z,22.43
2017-12-05T18:49:54.241Z,13.30
2017-12-05T18:52:22.569Z,18.80
2017-12-05T18:54:50.837Z,15.10
2017-12-05T18:57:19.121Z,18.57
2017-12-05T18:59:47.391Z,19.27
2017-12-05T19:11:51.891Z,19.20
2017-12-05T19:14:25.623Z,18.27
2017-12-05T19:16:56.779Z,13.07
2017-12-05T19:19:25.138Z,23.70
2017-12-05T19:21:53.656Z,14.37
2017-12-05T19:24:21.957Z,22.47
2017-12-05T19:26:50.351Z,16.83
2017-12-05T19:29:19.406Z,14.17
2017-12-05T19:31:49.934Z,16.20
2017-12-05T19:34:18.249Z,16.37
2017-12-05T19:36:46.565Z,18.33
2017-12-05T19:39:14.895Z,17.27
2017-12-05T19:41:43.307Z,18.07
2017-12-05T19:44:12.377Z,19.70
2017-12-05T19:46:40.677Z,15.87
2017-12-05T19:49:09.715Z,18.40
2017-12-05T19:51:38.035Z,17.07
2017-12-05T19:54:07.091Z,18.00
2017-12-05T19:56:35.439Z,17.90
2017-12-05T19:59:03.749Z,17.63
2017-12-05T20:01:32.065Z,17.87
2017-12-05T20:04:01.143Z,22.40
2017-12-05T20:06:29.482Z,20.07
2017-12-05T20:08:57.807Z,22.00
2017-12-05T20:11:26.123Z,18.93
2017-12-05T20:13:54.430Z,25.90
2017-12-05T20:16:22.765Z,16.67
2017-12-05T20:18:51.082Z,16.70
2017-12-05T20:21:19.439Z,16.33
2017-12-05T20:23:47.768Z,18.77
2017-12-05T20:26:16.900Z,18.67
2017-12-05T20:28:45.222Z,18.97
2017-12-05T20:31:13.556Z,21.30
2017-12-05T20:33:41.871Z,13.50
2017-12-05T20:36:10.178Z,19.93
2017-12-05T20:38:39.251Z,19.77
2017-12-05T20:41:07.562Z,22.67
2017-12-05T20:43:36.638Z,14.60
2017-12-05T20:46:04.978Z,19.03
2017-12-05T20:48:33.303Z,15.83
2017-12-05T20:51:01.600Z,21.17
2017-12-05T20:53:29.933Z,19.40
2017-12-05T20:55:58.234Z,20.60
2017-12-05T20:58:26.561Z,11.50
2017-12-05T21:00:54.858Z,18.80
2017-12-05T21:03:23.221Z,14.70
2017-12-05T21:05:51.543Z,23.00
2017-12-05T21:08:20.616Z,19.30
2017-12-05T21:10:48.923Z,20.77
2017-12-05T21:13:17.261Z,20.50
2017-12-05T21:15:45.560Z,20.37
2017-12-05T21:18:13.838Z,20.20
2017-12-05T21:20:42.926Z,19.73
2017-12-05T21:23:11.222Z,24.00
2017-12-05T21:25:40.292Z,18.60
2017-12-05T21:28:08.615Z,20.20
2017-12-05T21:30:36.898Z,17.43
2017-12-05T21:33:05.184Z,22.30
2017-12-05T21:35:33.513Z,18.60
2017-12-05T21:38:02.646Z,19.57
2017-12-05T21:40:30.938Z,17.80
2017-12-05T21:42:59.252Z,17.30
2017-12-05T21:45:28.334Z,16.90
2017-12-05T21:47:56.604Z,18.00
2017-12-05T21:50:24.870Z,15.60
2017-12-05T21:52:53.216Z,18.93
2017-12-05T21:55:21.484Z,18.37
2017-12-05T21:57:49.804Z,19.30
2017-12-05T22:00:18.116Z,19.53
2017-12-05T22:02:47.178Z,18.33
2017-12-05T22:05:15.525Z,20.20
2017-12-05T22:07:43.822Z,19.00
2017-12-05T22:10:12.144Z,15.70
2017-12-05T22:12:41.202Z,21.13
2017-12-05T22:15:09.542Z,14.63
2017-12-05T22:17:37.838Z,16.73
2017-12-05T22:20:06.139Z,16.10
2017-12-05T22:22:34.464Z,16.20
2017-12-05T22:25:02.757Z,21.33
2017-12-05T22:27:31.085Z,19.63
2017-12-05T22:29:59.424Z,17.83
2017-12-05T22:32:27.769Z,18.23
2017-12-05T22:34:56.054Z,16.47
2017-12-05T22:37:24.359Z,17.93
2017-12-05T22:39:52.634Z,20.43
2017-12-05T22:42:20.963Z,18.33
2017-12-05T22:44:49.223Z,19.60
2017-12-05T22:47:17.494Z,13.30
2017-12-05T22:49:45.776Z,17.90
2017-12-05T22:52:14.072Z,17.27
2017-12-05T22:54:42.353Z,19.73
2017-12-05T22:57:10.630Z,15.90
2017-12-05T22:59:38.920Z,16.30
2017-12-05T23:02:07.205Z,16.97
2017-12-05T23:04:35.489Z,17.93
2017-12-05T23:07:03.745Z,16.67
2017-12-05T23:09:31.995Z,18.93
2017-12-05T23:12:01.244Z,10.73
2017-12-05T23:14:29.545Z,17.30
2017-12-05T23:16:57.841Z,15.83
2017-12-05T23:19:26.167Z,16.60
2017-12-05T23:21:54.411Z,16.40
2017-12-05T23:24:22.677Z,17.63
2017-12-05T23:26:51.694Z,16.40
2017-12-05T23:29:19.960Z,15.83
2017-12-05T23:31:48.206Z,17.13
2017-12-05T23:34:17.235Z,16.23
2017-12-05T23:36:45.492Z,15.23
2017-12-05T23:39:14.517Z,21.43
2017-12-05T23:41:42.769Z,15.17
2017-12-05T23:44:11.029Z,14.20
2017-12-05T23:46:40.045Z,18.90
2017-12-05T23:49:08.309Z,14.60
2017-12-05T23:51:36.557Z,15.40
2017-12-05T23:54:05.573Z,20.67
2017-12-05T23:56:33.838Z,15.70
2017-12-05T23:59:02.847Z,14.10
